sensor_id;sensor_type;location;lat;lon;timestamp;P1;durP1;ratioP1;P2;durP2;ratioP2
2710;SDS011;20721;47.402;8.550;2023-09-19T00:01:08;1.30;;;1.29;;
2710;SDS011;20721;47.402;8.550;2023-09-19T00:03:10;1.34;;;1.34;;
2710;SDS011;20721;47.402;8.550;2023-09-19T00:05:08;1.42;;;1.42;;
2710;SDS011;20721;47.402;8.550;2023-09-19T00:07:09;1.63;;;1.63;;
2710;SDS011;20721;47.402;8.550;2023-09-19T00:09:10;1.08;;;1.08;;
2710;SDS011;20721;47.402;8.550;2023-09-19T00:12:09;1.47;;;1.47;;
2710;SDS011;20721;47.402;8.550;2023-09-19T00:14:09;1.29;;;1.29;;
2710;SDS011;20721;47.402;8.550;2023-09-19T00:16:09;1.69;;;1.69;;
2710;SDS011;20721;47.402;8.550;2023-09-19T00:18:09;1.25;;;1.25;;
2710;SDS011;20721;47.402;8.550;2023-09-19T00:20:09;1.54;;;1.54;;
2710;SDS011;20721;47.402;8.550;2023-09-19T00:22:08;0.94;;;0.94;;
2710;SDS011;20721;47.402;8.550;2023-09-19T00:24:08;1.50;;;1.50;;
2710;SDS011;20721;47.402;8.550;2023-09-19T00:26:09;1.56;;;1.56;;
2710;SDS011;20721;47.402;8.550;2023-09-19T00:28:09;1.32;;;1.32;;
2710;SDS011;20721;47.402;8.550;2023-09-19T00:30:09;1.26;;;1.26;;
2710;SDS011;20721;47.402;8.550;2023-09-19T00:32:09;1.18;;;1.18;;
2710;SDS011;20721;47.402;8.550;2023-09-19T00:34:10;1.58;;;1.58;;
2710;SDS011;20721;47.402;8.550;2023-09-19T00:36:09;1.74;;;1.74;;
2710;SDS011;20721;47.402;8.550;2023-09-19T00:38:08;1.45;;;1.45;;
2710;SDS011;20721;47.402;8.550;2023-09-19T00:41:11;1.40;;;1.39;;
2710;SDS011;20721;47.402;8.550;2023-09-19T00:43:12;1.12;;;1.12;;
2710;SDS011;20721;47.402;8.550;2023-09-19T00:45:09;1.21;;;1.20;;
2710;SDS011;20721;47.402;8.550;2023-09-19T00:47:09;1.54;;;1.54;;
2710;SDS011;20721;47.402;8.550;2023-09-19T00:51:12;1.04;;;1.04;;
2710;SDS011;20721;47.402;8.550;2023-09-19T00:53:09;1.55;;;1.54;;
2710;SDS011;20721;47.402;8.550;2023-09-19T00:56:09;1.82;;;1.81;;
2710;SDS011;20721;47.402;8.550;2023-09-19T00:59:09;1.19;;;1.19;;
2710;SDS011;20721;47.402;8.550;2023-09-19T01:01:09;1.81;;;1.81;;
2710;SDS011;20721;47.402;8.550;2023-09-19T01:04:09;1.34;;;1.34;;
2710;SDS011;20721;47.402;8.550;2023-09-19T01:06:09;1.62;;;1.62;;
2710;SDS011;20721;47.402;8.550;2023-09-19T01:08:09;1.48;;;1.48;;
2710;SDS011;20721;47.402;8.550;2023-09-19T01:10:11;1.30;;;1.30;;
2710;SDS011;20721;47.402;8.550;2023-09-19T01:12:11;1.49;;;1.49;;
2710;SDS011;20721;47.402;8.550;2023-09-19T01:14:22;1.58;;;1.58;;
2710;SDS011;20721;47.402;8.550;2023-09-19T01:16:19;1.58;;;1.58;;
2710;SDS011;20721;47.402;8.550;2023-09-19T01:18:16;1.40;;;1.40;;
2710;SDS011;20721;47.402;8.550;2023-09-19T01:20:33;1.55;;;1.55;;
2710;SDS011;20721;47.402;8.550;2023-09-19T01:22:25;1.48;;;1.48;;
2710;SDS011;20721;47.402;8.550;2023-09-19T01:27:33;1.44;;;1.44;;
2710;SDS011;20721;47.402;8.550;2023-09-19T01:30:17;1.64;;;1.64;;
2710;SDS011;20721;47.402;8.550;2023-09-19T01:33:09;1.24;;;1.24;;
2710;SDS011;20721;47.402;8.550;2023-09-19T01:35:14;1.19;;;1.19;;
2710;SDS011;20721;47.402;8.550;2023-09-19T01:38:09;1.24;;;1.24;;
2710;SDS011;20721;47.402;8.550;2023-09-19T01:40:20;1.37;;;1.37;;
2710;SDS011;20721;47.402;8.550;2023-09-19T01:44:11;1.80;;;1.80;;
2710;SDS011;20721;47.402;8.550;2023-09-19T01:46:22;1.29;;;1.29;;
2710;SDS011;20721;47.402;8.550;2023-09-19T01:48:19;1.44;;;1.44;;
2710;SDS011;20721;47.402;8.550;2023-09-19T01:50:42;1.60;;;1.60;;
2710;SDS011;20721;47.402;8.550;2023-09-19T01:52:13;1.21;;;1.21;;
2710;SDS011;20721;47.402;8.550;2023-09-19T01:54:16;1.15;;;1.15;;
2710;SDS011;20721;47.402;8.550;2023-09-19T01:56:12;1.78;;;1.78;;
2710;SDS011;20721;47.402;8.550;2023-09-19T01:59:13;1.10;;;1.10;;
2710;SDS011;20721;47.402;8.550;2023-09-19T02:01:11;1.39;;;1.39;;
2710;SDS011;20721;47.402;8.550;2023-09-19T02:04:09;1.10;;;1.10;;
2710;SDS011;20721;47.402;8.550;2023-09-19T02:06:09;1.17;;;1.17;;
2710;SDS011;20721;47.402;8.550;2023-09-19T02:08:09;1.22;;;1.22;;
2710;SDS011;20721;47.402;8.550;2023-09-19T02:10:10;1.24;;;1.24;;
2710;SDS011;20721;47.402;8.550;2023-09-19T02:12:09;1.30;;;1.30;;
2710;SDS011;20721;47.402;8.550;2023-09-19T02:14:09;1.02;;;1.02;;
2710;SDS011;20721;47.402;8.550;2023-09-19T02:16:09;1.15;;;1.15;;
2710;SDS011;20721;47.402;8.550;2023-09-19T02:18:09;1.17;;;1.17;;
2710;SDS011;20721;47.402;8.550;2023-09-19T02:20:11;1.46;;;1.46;;
2710;SDS011;20721;47.402;8.550;2023-09-19T02:22:09;1.17;;;1.17;;
2710;SDS011;20721;47.402;8.550;2023-09-19T02:24:10;1.17;;;1.17;;
2710;SDS011;20721;47.402;8.550;2023-09-19T02:26:10;0.87;;;0.87;;
2710;SDS011;20721;47.402;8.550;2023-09-19T02:28:09;1.16;;;1.16;;
2710;SDS011;20721;47.402;8.550;2023-09-19T02:30:14;1.26;;;1.26;;
2710;SDS011;20721;47.402;8.550;2023-09-19T02:32:09;1.25;;;1.25;;
2710;SDS011;20721;47.402;8.550;2023-09-19T02:34:10;1.31;;;1.31;;
2710;SDS011;20721;47.402;8.550;2023-09-19T02:36:09;1.19;;;1.19;;
2710;SDS011;20721;47.402;8.550;2023-09-19T02:38:09;1.03;;;1.03;;
2710;SDS011;20721;47.402;8.550;2023-09-19T02:40:09;1.29;;;1.29;;
2710;SDS011;20721;47.402;8.550;2023-09-19T02:44:09;1.33;;;1.33;;
2710;SDS011;20721;47.402;8.550;2023-09-19T02:46:09;1.08;;;1.08;;
2710;SDS011;20721;47.402;8.550;2023-09-19T02:48:09;1.25;;;1.25;;
2710;SDS011;20721;47.402;8.550;2023-09-19T02:50:09;1.22;;;1.22;;
2710;SDS011;20721;47.402;8.550;2023-09-19T02:52:09;0.90;;;0.90;;
2710;SDS011;20721;47.402;8.550;2023-09-19T02:54:09;1.38;;;1.38;;
2710;SDS011;20721;47.402;8.550;2023-09-19T02:56:09;1.21;;;1.21;;
2710;SDS011;20721;47.402;8.550;2023-09-19T02:58:10;1.15;;;1.15;;
2710;SDS011;20721;47.402;8.550;2023-09-19T03:00:10;1.10;;;1.10;;
2710;SDS011;20721;47.402;8.550;2023-09-19T03:02:10;1.24;;;1.24;;
2710;SDS011;20721;47.402;8.550;2023-09-19T03:04:09;1.12;;;1.12;;
2710;SDS011;20721;47.402;8.550;2023-09-19T03:06:09;1.39;;;1.39;;
2710;SDS011;20721;47.402;8.550;2023-09-19T03:08:13;1.07;;;1.07;;
2710;SDS011;20721;47.402;8.550;2023-09-19T03:10:09;1.12;;;1.12;;
2710;SDS011;20721;47.402;8.550;2023-09-19T03:12:09;1.17;;;1.17;;
2710;SDS011;20721;47.402;8.550;2023-09-19T03:14:09;1.03;;;1.03;;
2710;SDS011;20721;47.402;8.550;2023-09-19T03:16:09;0.96;;;0.96;;
2710;SDS011;20721;47.402;8.550;2023-09-19T03:18:09;0.96;;;0.96;;
2710;SDS011;20721;47.402;8.550;2023-09-19T03:20:09;1.31;;;1.31;;
2710;SDS011;20721;47.402;8.550;2023-09-19T03:22:09;0.86;;;0.86;;
2710;SDS011;20721;47.402;8.550;2023-09-19T03:25:10;1.36;;;1.36;;
2710;SDS011;20721;47.402;8.550;2023-09-19T03:27:09;0.83;;;0.83;;
2710;SDS011;20721;47.402;8.550;2023-09-19T03:30:09;1.06;;;1.06;;
2710;SDS011;20721;47.402;8.550;2023-09-19T03:32:09;0.98;;;0.98;;
2710;SDS011;20721;47.402;8.550;2023-09-19T03:34:09;1.22;;;1.22;;
2710;SDS011;20721;47.402;8.550;2023-09-19T03:37:09;1.03;;;1.02;;
2710;SDS011;20721;47.402;8.550;2023-09-19T03:39:09;0.79;;;0.78;;
2710;SDS011;20721;47.402;8.550;2023-09-19T03:42:09;1.14;;;1.14;;
2710;SDS011;20721;47.402;8.550;2023-09-19T03:44:09;0.80;;;0.79;;
2710;SDS011;20721;47.402;8.550;2023-09-19T03:46:12;1.19;;;1.18;;
2710;SDS011;20721;47.402;8.550;2023-09-19T03:48:09;1.35;;;1.34;;
2710;SDS011;20721;47.402;8.550;2023-09-19T03:50:09;0.89;;;0.89;;
2710;SDS011;20721;47.402;8.550;2023-09-19T03:53:09;1.05;;;1.04;;
2710;SDS011;20721;47.402;8.550;2023-09-19T03:57:09;0.93;;;0.92;;
2710;SDS011;20721;47.402;8.550;2023-09-19T03:59:09;0.86;;;0.85;;
2710;SDS011;20721;47.402;8.550;2023-09-19T04:01:10;0.79;;;0.79;;
2710;SDS011;20721;47.402;8.550;2023-09-19T04:03:12;0.93;;;0.93;;
2710;SDS011;20721;47.402;8.550;2023-09-19T04:05:09;0.97;;;0.97;;
2710;SDS011;20721;47.402;8.550;2023-09-19T04:08:09;1.07;;;1.07;;
2710;SDS011;20721;47.402;8.550;2023-09-19T04:10:09;0.80;;;0.80;;
2710;SDS011;20721;47.402;8.550;2023-09-19T04:12:09;0.87;;;0.87;;
2710;SDS011;20721;47.402;8.550;2023-09-19T04:14:12;0.79;;;0.79;;
2710;SDS011;20721;47.402;8.550;2023-09-19T04:16:09;1.04;;;1.03;;
2710;SDS011;20721;47.402;8.550;2023-09-19T04:18:09;0.72;;;0.71;;
2710;SDS011;20721;47.402;8.550;2023-09-19T04:20:09;0.86;;;0.85;;
2710;SDS011;20721;47.402;8.550;2023-09-19T04:22:09;0.79;;;0.79;;
2710;SDS011;20721;47.402;8.550;2023-09-19T04:24:09;0.87;;;0.86;;
2710;SDS011;20721;47.402;8.550;2023-09-19T04:26:09;0.94;;;0.93;;
2710;SDS011;20721;47.402;8.550;2023-09-19T04:28:09;0.93;;;0.92;;
2710;SDS011;20721;47.402;8.550;2023-09-19T04:30:09;1.30;;;1.29;;
2710;SDS011;20721;47.402;8.550;2023-09-19T04:32:09;1.21;;;1.19;;
2710;SDS011;20721;47.402;8.550;2023-09-19T04:34:15;1.21;;;1.20;;
2710;SDS011;20721;47.402;8.550;2023-09-19T04:37:10;0.73;;;0.73;;
2710;SDS011;20721;47.402;8.550;2023-09-19T04:39:09;0.92;;;0.91;;
2710;SDS011;20721;47.402;8.550;2023-09-19T04:41:09;0.75;;;0.75;;
2710;SDS011;20721;47.402;8.550;2023-09-19T04:43:10;0.80;;;0.80;;
2710;SDS011;20721;47.402;8.550;2023-09-19T04:45:10;0.93;;;0.93;;
2710;SDS011;20721;47.402;8.550;2023-09-19T04:48:09;1.12;;;1.12;;
2710;SDS011;20721;47.402;8.550;2023-09-19T04:50:09;0.84;;;0.84;;
2710;SDS011;20721;47.402;8.550;2023-09-19T04:52:09;1.08;;;1.08;;
2710;SDS011;20721;47.402;8.550;2023-09-19T04:54:09;0.78;;;0.78;;
2710;SDS011;20721;47.402;8.550;2023-09-19T04:56:09;0.63;;;0.63;;
2710;SDS011;20721;47.402;8.550;2023-09-19T04:58:09;0.61;;;0.61;;
2710;SDS011;20721;47.402;8.550;2023-09-19T05:00:09;0.92;;;0.92;;
2710;SDS011;20721;47.402;8.550;2023-09-19T05:02:09;1.08;;;1.08;;
2710;SDS011;20721;47.402;8.550;2023-09-19T05:04:09;0.94;;;0.94;;
2710;SDS011;20721;47.402;8.550;2023-09-19T05:06:09;0.89;;;0.89;;
2710;SDS011;20721;47.402;8.550;2023-09-19T05:08:15;0.92;;;0.92;;
2710;SDS011;20721;47.402;8.550;2023-09-19T05:10:09;0.70;;;0.70;;
2710;SDS011;20721;47.402;8.550;2023-09-19T05:12:09;1.05;;;1.05;;
2710;SDS011;20721;47.402;8.550;2023-09-19T05:15:10;1.21;;;1.21;;
2710;SDS011;20721;47.402;8.550;2023-09-19T05:17:09;1.12;;;1.12;;
2710;SDS011;20721;47.402;8.550;2023-09-19T05:19:10;0.89;;;0.89;;
2710;SDS011;20721;47.402;8.550;2023-09-19T05:21:11;1.46;;;1.46;;
2710;SDS011;20721;47.402;8.550;2023-09-19T05:24:09;1.45;;;1.45;;
2710;SDS011;20721;47.402;8.550;2023-09-19T05:26:10;1.21;;;1.21;;
2710;SDS011;20721;47.402;8.550;2023-09-19T05:28:10;1.60;;;1.60;;
2710;SDS011;20721;47.402;8.550;2023-09-19T05:30:10;1.30;;;1.30;;
2710;SDS011;20721;47.402;8.550;2023-09-19T05:32:10;1.15;;;1.15;;
2710;SDS011;20721;47.402;8.550;2023-09-19T05:34:11;1.47;;;1.47;;
2710;SDS011;20721;47.402;8.550;2023-09-19T05:36:09;1.44;;;1.44;;
2710;SDS011;20721;47.402;8.550;2023-09-19T05:38:09;1.34;;;1.34;;
2710;SDS011;20721;47.402;8.550;2023-09-19T05:40:09;2.39;;;2.39;;
2710;SDS011;20721;47.402;8.550;2023-09-19T05:42:10;2.80;;;2.79;;
2710;SDS011;20721;47.402;8.550;2023-09-19T05:45:11;2.14;;;2.13;;
2710;SDS011;20721;47.402;8.550;2023-09-19T05:47:10;2.03;;;2.02;;
2710;SDS011;20721;47.402;8.550;2023-09-19T05:49:09;2.32;;;2.30;;
2710;SDS011;20721;47.402;8.550;2023-09-19T05:51:11;1.63;;;1.62;;
2710;SDS011;20721;47.402;8.550;2023-09-19T05:54:09;1.27;;;1.26;;
2710;SDS011;20721;47.402;8.550;2023-09-19T05:56:11;0.95;;;0.95;;
2710;SDS011;20721;47.402;8.550;2023-09-19T05:58:09;1.21;;;1.21;;
2710;SDS011;20721;47.402;8.550;2023-09-19T06:01:09;1.30;;;1.28;;
2710;SDS011;20721;47.402;8.550;2023-09-19T06:03:09;1.66;;;1.61;;
2710;SDS011;20721;47.402;8.550;2023-09-19T06:05:09;1.21;;;1.18;;
2710;SDS011;20721;47.402;8.550;2023-09-19T06:07:10;0.93;;;0.91;;
2710;SDS011;20721;47.402;8.550;2023-09-19T06:09:09;1.09;;;1.07;;
2710;SDS011;20721;47.402;8.550;2023-09-19T06:11:09;2.27;;;2.15;;
2710;SDS011;20721;47.402;8.550;2023-09-19T06:14:11;2.37;;;2.06;;
2710;SDS011;20721;47.402;8.550;2023-09-19T06:16:15;1.76;;;1.53;;
2710;SDS011;20721;47.402;8.550;2023-09-19T06:18:11;1.42;;;1.25;;
2710;SDS011;20721;47.402;8.550;2023-09-19T06:20:09;1.52;;;1.34;;
2710;SDS011;20721;47.402;8.550;2023-09-19T06:22:09;1.76;;;1.58;;
2710;SDS011;20721;47.402;8.550;2023-09-19T06:24:09;1.05;;;0.96;;
2710;SDS011;20721;47.402;8.550;2023-09-19T06:26:09;1.55;;;1.43;;
2710;SDS011;20721;47.402;8.550;2023-09-19T06:28:09;1.64;;;1.53;;
2710;SDS011;20721;47.402;8.550;2023-09-19T06:30:10;0.95;;;0.90;;
2710;SDS011;20721;47.402;8.550;2023-09-19T06:33:10;0.96;;;0.93;;
2710;SDS011;20721;47.402;8.550;2023-09-19T06:35:10;0.73;;;0.71;;
2710;SDS011;20721;47.402;8.550;2023-09-19T06:37:10;0.64;;;0.63;;
2710;SDS011;20721;47.402;8.550;2023-09-19T06:39:09;0.68;;;0.67;;
2710;SDS011;20721;47.402;8.550;2023-09-19T06:41:12;1.02;;;1.01;;
2710;SDS011;20721;47.402;8.550;2023-09-19T06:43:12;0.83;;;0.83;;
2710;SDS011;20721;47.402;8.550;2023-09-19T06:45:10;1.12;;;1.11;;
2710;SDS011;20721;47.402;8.550;2023-09-19T06:47:09;0.88;;;0.87;;
2710;SDS011;20721;47.402;8.550;2023-09-19T06:49:09;1.13;;;1.12;;
2710;SDS011;20721;47.402;8.550;2023-09-19T06:51:14;0.82;;;0.82;;
2710;SDS011;20721;47.402;8.550;2023-09-19T06:53:10;0.94;;;0.94;;
2710;SDS011;20721;47.402;8.550;2023-09-19T06:55:09;1.21;;;1.20;;
2710;SDS011;20721;47.402;8.550;2023-09-19T06:57:10;1.27;;;1.26;;
2710;SDS011;20721;47.402;8.550;2023-09-19T06:59:10;0.98;;;0.97;;
2710;SDS011;20721;47.402;8.550;2023-09-19T07:01:09;0.98;;;0.97;;
2710;SDS011;20721;47.402;8.550;2023-09-19T07:03:13;1.23;;;1.22;;
2710;SDS011;20721;47.402;8.550;2023-09-19T07:05:10;0.96;;;0.95;;
2710;SDS011;20721;47.402;8.550;2023-09-19T07:07:10;0.99;;;0.99;;
2710;SDS011;20721;47.402;8.550;2023-09-19T07:09:10;1.01;;;1.00;;
2710;SDS011;20721;47.402;8.550;2023-09-19T07:11:10;0.96;;;0.96;;
2710;SDS011;20721;47.402;8.550;2023-09-19T07:13:10;1.20;;;1.20;;
2710;SDS011;20721;47.402;8.550;2023-09-19T07:15:10;1.06;;;1.05;;
2710;SDS011;20721;47.402;8.550;2023-09-19T07:17:10;1.05;;;1.04;;
2710;SDS011;20721;47.402;8.550;2023-09-19T07:19:10;0.89;;;0.88;;
2710;SDS011;20721;47.402;8.550;2023-09-19T07:21:14;0.77;;;0.77;;
2710;SDS011;20721;47.402;8.550;2023-09-19T07:23:11;1.14;;;1.14;;
2710;SDS011;20721;47.402;8.550;2023-09-19T07:25:10;0.97;;;0.97;;
2710;SDS011;20721;47.402;8.550;2023-09-19T07:27:10;0.95;;;0.95;;
2710;SDS011;20721;47.402;8.550;2023-09-19T07:29:12;0.93;;;0.92;;
2710;SDS011;20721;47.402;8.550;2023-09-19T07:31:11;1.28;;;1.27;;
2710;SDS011;20721;47.402;8.550;2023-09-19T07:33:10;1.01;;;1.01;;
2710;SDS011;20721;47.402;8.550;2023-09-19T07:35:10;1.03;;;1.02;;
2710;SDS011;20721;47.402;8.550;2023-09-19T07:37:10;0.96;;;0.95;;
2710;SDS011;20721;47.402;8.550;2023-09-19T07:39:20;1.26;;;1.26;;
2710;SDS011;20721;47.402;8.550;2023-09-19T07:41:10;0.81;;;0.81;;
2710;SDS011;20721;47.402;8.550;2023-09-19T07:43:11;1.22;;;1.22;;
2710;SDS011;20721;47.402;8.550;2023-09-19T07:45:10;0.72;;;0.72;;
2710;SDS011;20721;47.402;8.550;2023-09-19T07:47:13;0.82;;;0.82;;
2710;SDS011;20721;47.402;8.550;2023-09-19T07:50:12;0.64;;;0.64;;
2710;SDS011;20721;47.402;8.550;2023-09-19T07:52:10;0.74;;;0.74;;
2710;SDS011;20721;47.402;8.550;2023-09-19T07:54:10;0.94;;;0.94;;
2710;SDS011;20721;47.402;8.550;2023-09-19T07:56:11;0.85;;;0.85;;
2710;SDS011;20721;47.402;8.550;2023-09-19T07:58:10;0.93;;;0.93;;
2710;SDS011;20721;47.402;8.550;2023-09-19T08:00:10;0.97;;;0.97;;
2710;SDS011;20721;47.402;8.550;2023-09-19T08:02:10;1.04;;;1.04;;
2710;SDS011;20721;47.402;8.550;2023-09-19T08:04:10;1.04;;;1.04;;
2710;SDS011;20721;47.402;8.550;2023-09-19T08:06:10;0.88;;;0.88;;
2710;SDS011;20721;47.402;8.550;2023-09-19T08:08:12;1.92;;;1.92;;
2710;SDS011;20721;47.402;8.550;2023-09-19T08:10:10;2.48;;;2.38;;
2710;SDS011;20721;47.402;8.550;2023-09-19T08:12:12;2.14;;;1.94;;
2710;SDS011;20721;47.402;8.550;2023-09-19T08:14:10;1.62;;;1.44;;
2710;SDS011;20721;47.402;8.550;2023-09-19T08:16:10;3.46;;;3.03;;
2710;SDS011;20721;47.402;8.550;2023-09-19T08:18:10;3.85;;;3.09;;
2710;SDS011;20721;47.402;8.550;2023-09-19T08:20:11;2.44;;;1.91;;
2710;SDS011;20721;47.402;8.550;2023-09-19T08:22:10;1.92;;;1.54;;
2710;SDS011;20721;47.402;8.550;2023-09-19T08:24:11;1.41;;;1.19;;
2710;SDS011;20721;47.402;8.550;2023-09-19T08:26:13;1.37;;;1.17;;
2710;SDS011;20721;47.402;8.550;2023-09-19T08:28:11;1.96;;;1.73;;
2710;SDS011;20721;47.402;8.550;2023-09-19T08:30:10;1.54;;;1.41;;
2710;SDS011;20721;47.402;8.550;2023-09-19T08:32:10;1.02;;;0.96;;
2710;SDS011;20721;47.402;8.550;2023-09-19T08:34:10;1.38;;;1.31;;
2710;SDS011;20721;47.402;8.550;2023-09-19T08:36:10;1.24;;;1.19;;
2710;SDS011;20721;47.402;8.550;2023-09-19T08:38:14;0.97;;;0.94;;
2710;SDS011;20721;47.402;8.550;2023-09-19T08:40:10;1.11;;;1.08;;
2710;SDS011;20721;47.402;8.550;2023-09-19T08:42:10;1.12;;;1.10;;
2710;SDS011;20721;47.402;8.550;2023-09-19T08:44:12;1.26;;;1.25;;
2710;SDS011;20721;47.402;8.550;2023-09-19T08:46:29;1.16;;;1.15;;
2710;SDS011;20721;47.402;8.550;2023-09-19T08:48:23;1.03;;;1.02;;
2710;SDS011;20721;47.402;8.550;2023-09-19T08:50:26;1.13;;;1.13;;
2710;SDS011;20721;47.402;8.550;2023-09-19T08:52:22;0.98;;;0.98;;
2710;SDS011;20721;47.402;8.550;2023-09-19T08:55:12;1.66;;;1.66;;
2710;SDS011;20721;47.402;8.550;2023-09-19T08:57:15;1.27;;;1.27;;
2710;SDS011;20721;47.402;8.550;2023-09-19T08:59:12;1.32;;;1.32;;
2710;SDS011;20721;47.402;8.550;2023-09-19T09:01:11;1.37;;;1.37;;
2710;SDS011;20721;47.402;8.550;2023-09-19T09:03:11;1.82;;;1.82;;
2710;SDS011;20721;47.402;8.550;2023-09-19T09:05:11;1.57;;;1.57;;
2710;SDS011;20721;47.402;8.550;2023-09-19T09:07:12;1.22;;;1.22;;
2710;SDS011;20721;47.402;8.550;2023-09-19T09:09:10;1.52;;;1.52;;
2710;SDS011;20721;47.402;8.550;2023-09-19T09:12:12;1.28;;;1.28;;
2710;SDS011;20721;47.402;8.550;2023-09-19T09:14:10;1.16;;;1.16;;
2710;SDS011;20721;47.402;8.550;2023-09-19T09:16:10;1.47;;;1.47;;
2710;SDS011;20721;47.402;8.550;2023-09-19T09:18:10;1.56;;;1.56;;
2710;SDS011;20721;47.402;8.550;2023-09-19T09:20:10;1.20;;;1.20;;
2710;SDS011;20721;47.402;8.550;2023-09-19T09:22:18;1.21;;;1.21;;
2710;SDS011;20721;47.402;8.550;2023-09-19T09:24:26;1.57;;;1.57;;
2710;SDS011;20721;47.402;8.550;2023-09-19T09:26:12;1.50;;;1.50;;
2710;SDS011;20721;47.402;8.550;2023-09-19T09:28:11;1.31;;;1.31;;
2710;SDS011;20721;47.402;8.550;2023-09-19T09:30:10;1.52;;;1.52;;
2710;SDS011;20721;47.402;8.550;2023-09-19T09:32:26;1.62;;;1.62;;
2710;SDS011;20721;47.402;8.550;2023-09-19T09:34:10;1.42;;;1.42;;
2710;SDS011;20721;47.402;8.550;2023-09-19T09:36:11;1.23;;;1.23;;
2710;SDS011;20721;47.402;8.550;2023-09-19T09:38:17;1.13;;;1.13;;
2710;SDS011;20721;47.402;8.550;2023-09-19T09:40:21;1.25;;;1.25;;
2710;SDS011;20721;47.402;8.550;2023-09-19T09:42:12;1.19;;;1.19;;
2710;SDS011;20721;47.402;8.550;2023-09-19T09:44:21;0.99;;;0.99;;
2710;SDS011;20721;47.402;8.550;2023-09-19T09:46:21;0.94;;;0.94;;
2710;SDS011;20721;47.402;8.550;2023-09-19T09:48:13;1.18;;;1.18;;
2710;SDS011;20721;47.402;8.550;2023-09-19T09:50:33;1.08;;;1.08;;
2710;SDS011;20721;47.402;8.550;2023-09-19T09:52:12;1.59;;;1.59;;
2710;SDS011;20721;47.402;8.550;2023-09-19T09:54:27;0.97;;;0.97;;
2710;SDS011;20721;47.402;8.550;2023-09-19T09:56:10;1.57;;;1.57;;
2710;SDS011;20721;47.402;8.550;2023-09-19T09:58:29;1.64;;;1.64;;
2710;SDS011;20721;47.402;8.550;2023-09-19T10:00:21;0.93;;;0.93;;
2710;SDS011;20721;47.402;8.550;2023-09-19T10:02:12;1.13;;;1.13;;
2710;SDS011;20721;47.402;8.550;2023-09-19T10:04:10;1.11;;;1.11;;
2710;SDS011;20721;47.402;8.550;2023-09-19T10:06:13;1.37;;;1.37;;
2710;SDS011;20721;47.402;8.550;2023-09-19T10:08:22;1.37;;;1.37;;
2710;SDS011;20721;47.402;8.550;2023-09-19T10:10:36;1.29;;;1.29;;
2710;SDS011;20721;47.402;8.550;2023-09-19T10:12:15;1.29;;;1.29;;
2710;SDS011;20721;47.402;8.550;2023-09-19T10:14:12;1.29;;;1.29;;
2710;SDS011;20721;47.402;8.550;2023-09-19T10:16:16;1.44;;;1.44;;
2710;SDS011;20721;47.402;8.550;2023-09-19T10:18:11;1.23;;;1.23;;
2710;SDS011;20721;47.402;8.550;2023-09-19T10:20:21;1.30;;;1.30;;
2710;SDS011;20721;47.402;8.550;2023-09-19T10:22:11;1.34;;;1.34;;
2710;SDS011;20721;47.402;8.550;2023-09-19T10:24:11;1.27;;;1.27;;
2710;SDS011;20721;47.402;8.550;2023-09-19T10:26:11;1.21;;;1.21;;
2710;SDS011;20721;47.402;8.550;2023-09-19T10:28:16;1.45;;;1.45;;
2710;SDS011;20721;47.402;8.550;2023-09-19T10:30:11;1.42;;;1.42;;
2710;SDS011;20721;47.402;8.550;2023-09-19T10:32:11;1.41;;;1.41;;
2710;SDS011;20721;47.402;8.550;2023-09-19T10:34:14;1.17;;;1.17;;
2710;SDS011;20721;47.402;8.550;2023-09-19T10:36:10;1.23;;;1.23;;
2710;SDS011;20721;47.402;8.550;2023-09-19T10:38:11;1.23;;;1.23;;
2710;SDS011;20721;47.402;8.550;2023-09-19T10:40:10;1.20;;;1.20;;
2710;SDS011;20721;47.402;8.550;2023-09-19T10:42:14;1.27;;;1.27;;
2710;SDS011;20721;47.402;8.550;2023-09-19T10:44:14;1.30;;;1.30;;
2710;SDS011;20721;47.402;8.550;2023-09-19T10:46:11;1.18;;;1.18;;
2710;SDS011;20721;47.402;8.550;2023-09-19T10:48:12;2.04;;;2.04;;
2710;SDS011;20721;47.402;8.550;2023-09-19T10:50:17;1.10;;;1.10;;
2710;SDS011;20721;47.402;8.550;2023-09-19T10:52:11;1.39;;;1.39;;
2710;SDS011;20721;47.402;8.550;2023-09-19T10:56:11;1.13;;;1.13;;
2710;SDS011;20721;47.402;8.550;2023-09-19T10:58:10;1.69;;;1.69;;
2710;SDS011;20721;47.402;8.550;2023-09-19T11:00:21;1.33;;;1.33;;
2710;SDS011;20721;47.402;8.550;2023-09-19T11:02:25;1.41;;;1.41;;
2710;SDS011;20721;47.402;8.550;2023-09-19T11:04:41;1.26;;;1.26;;
2710;SDS011;20721;47.402;8.550;2023-09-19T11:06:13;1.19;;;1.19;;
2710;SDS011;20721;47.402;8.550;2023-09-19T11:08:14;0.85;;;0.85;;
2710;SDS011;20721;47.402;8.550;2023-09-19T11:10:34;1.35;;;1.35;;
2710;SDS011;20721;47.402;8.550;2023-09-19T11:12:10;1.14;;;1.14;;
2710;SDS011;20721;47.402;8.550;2023-09-19T11:14:41;1.72;;;1.72;;
2710;SDS011;20721;47.402;8.550;2023-09-19T11:19:17;1.37;;;1.37;;
2710;SDS011;20721;47.402;8.550;2023-09-19T11:21:41;1.50;;;1.50;;
2710;SDS011;20721;47.402;8.550;2023-09-19T11:23:28;1.20;;;1.20;;
2710;SDS011;20721;47.402;8.550;2023-09-19T11:25:44;1.54;;;1.54;;
2710;SDS011;20721;47.402;8.550;2023-09-19T11:27:19;1.53;;;1.53;;
2710;SDS011;20721;47.402;8.550;2023-09-19T11:29:34;1.11;;;1.11;;
2710;SDS011;20721;47.402;8.550;2023-09-19T11:31:41;1.45;;;1.45;;
2710;SDS011;20721;47.402;8.550;2023-09-19T11:33:29;1.26;;;1.26;;
2710;SDS011;20721;47.402;8.550;2023-09-19T11:35:17;1.69;;;1.69;;
2710;SDS011;20721;47.402;8.550;2023-09-19T11:39:34;1.62;;;1.62;;
2710;SDS011;20721;47.402;8.550;2023-09-19T11:41:41;1.49;;;1.49;;
2710;SDS011;20721;47.402;8.550;2023-09-19T11:43:37;1.27;;;1.27;;
2710;SDS011;20721;47.402;8.550;2023-09-19T11:47:14;1.59;;;1.59;;
2710;SDS011;20721;47.402;8.550;2023-09-19T11:49:16;1.16;;;1.16;;
2710;SDS011;20721;47.402;8.550;2023-09-19T11:51:25;1.47;;;1.47;;
2710;SDS011;20721;47.402;8.550;2023-09-19T11:53:12;1.32;;;1.32;;
2710;SDS011;20721;47.402;8.550;2023-09-19T11:56:11;1.52;;;1.51;;
2710;SDS011;20721;47.402;8.550;2023-09-19T11:58:11;1.57;;;1.57;;
2710;SDS011;20721;47.402;8.550;2023-09-19T12:00:17;1.48;;;1.48;;
2710;SDS011;20721;47.402;8.550;2023-09-19T12:02:15;1.43;;;1.43;;
2710;SDS011;20721;47.402;8.550;2023-09-19T12:04:12;1.61;;;1.61;;
2710;SDS011;20721;47.402;8.550;2023-09-19T12:06:20;1.33;;;1.33;;
2710;SDS011;20721;47.402;8.550;2023-09-19T12:08:11;1.18;;;1.18;;
2710;SDS011;20721;47.402;8.550;2023-09-19T12:10:14;1.46;;;1.46;;
2710;SDS011;20721;47.402;8.550;2023-09-19T12:12:10;1.55;;;1.55;;
2710;SDS011;20721;47.402;8.550;2023-09-19T12:14:11;1.29;;;1.29;;
2710;SDS011;20721;47.402;8.550;2023-09-19T12:16:11;1.72;;;1.72;;
2710;SDS011;20721;47.402;8.550;2023-09-19T12:18:25;2.58;;;2.58;;
2710;SDS011;20721;47.402;8.550;2023-09-19T12:20:11;2.30;;;2.30;;
2710;SDS011;20721;47.402;8.550;2023-09-19T12:22:14;3.16;;;3.16;;
2710;SDS011;20721;47.402;8.550;2023-09-19T12:24:12;2.60;;;2.60;;
2710;SDS011;20721;47.402;8.550;2023-09-19T12:26:12;1.97;;;1.97;;
2710;SDS011;20721;47.402;8.550;2023-09-19T12:28:14;1.17;;;1.17;;
2710;SDS011;20721;47.402;8.550;2023-09-19T12:30:21;1.36;;;1.36;;
2710;SDS011;20721;47.402;8.550;2023-09-19T12:32:13;1.24;;;1.24;;
2710;SDS011;20721;47.402;8.550;2023-09-19T12:34:11;1.56;;;1.56;;
2710;SDS011;20721;47.402;8.550;2023-09-19T12:36:29;1.56;;;1.56;;
2710;SDS011;20721;47.402;8.550;2023-09-19T12:38:21;1.51;;;1.51;;
2710;SDS011;20721;47.402;8.550;2023-09-19T12:40:15;1.45;;;1.45;;
2710;SDS011;20721;47.402;8.550;2023-09-19T12:42:15;1.64;;;1.64;;
2710;SDS011;20721;47.402;8.550;2023-09-19T12:44:11;1.96;;;1.96;;
2710;SDS011;20721;47.402;8.550;2023-09-19T12:46:10;3.58;;;3.58;;
2710;SDS011;20721;47.402;8.550;2023-09-19T12:48:41;1.70;;;1.70;;
2710;SDS011;20721;47.402;8.550;2023-09-19T12:50:18;1.65;;;1.65;;
2710;SDS011;20721;47.402;8.550;2023-09-19T12:52:10;1.80;;;1.80;;
2710;SDS011;20721;47.402;8.550;2023-09-19T12:54:10;1.59;;;1.59;;
2710;SDS011;20721;47.402;8.550;2023-09-19T12:56:11;1.17;;;1.17;;
2710;SDS011;20721;47.402;8.550;2023-09-19T12:58:14;1.26;;;1.26;;
2710;SDS011;20721;47.402;8.550;2023-09-19T13:00:11;1.50;;;1.50;;
2710;SDS011;20721;47.402;8.550;2023-09-19T13:02:13;1.20;;;1.20;;